Time;durP1;ratioP1;P1;durP2;ratioP2;P2;SDS_P1;SDS_P2;PMS_P1;PMS_P2;Temp;Humidity;BMP_temperature;BMP_pressure;BME280_temperature;BME280_humidity;BME280_pressure;Samples;Min_cycle;Max_cycle;Signal;HPM_P1;HPM_P2
2023/03/15 00:02:03;;;;;;;4.82;1.50;;;4.80;99.90;;;;;;5053601;28;20025;-49
2023/03/15 00:04:31;;;;;;;6.95;1.50;;;4.90;99.90;;;;;;5048810;28;20021;-43
2023/03/15 00:06:57;;;;;;;8.40;2.03;;;4.90;99.90;;;;;;5053687;28;20471;-47
2023/03/15 00:09:24;;;;;;;9.75;1.60;;;4.90;99.90;;;;;;5053748;28;20084;-44
2023/03/15 00:11:51;;;;;;;7.10;1.77;;;4.90;99.90;;;;;;5053844;28;20025;-42
2023/03/15 00:14:17;;;;;;;7.65;1.50;;;4.90;99.90;;;;;;5053779;28;20103;-41
2023/03/15 00:16:43;;;;;;;5.22;2.00;;;4.90;99.90;;;;;;5054101;28;20036;-42
2023/03/15 00:19:10;;;;;;;10.02;1.70;;;4.90;99.90;;;;;;5053759;28;20081;-42
2023/03/15 00:21:35;;;;;;;6.10;1.65;;;4.90;99.90;;;;;;5035245;28;20033;-42
2023/03/15 00:24:02;;;;;;;7.32;1.60;;;4.90;99.90;;;;;;5053702;28;20029;-42
2023/03/15 00:26:28;;;;;;;6.10;1.40;;;4.80;99.90;;;;;;5053446;28;20021;-48
2023/03/15 00:28:53;;;;;;;5.03;1.00;;;4.70;99.90;;;;;;5053648;28;20111;-44
2023/03/15 00:31:22;;;;;;;6.85;1.50;;;4.60;99.90;;;;;;5035612;28;20032;-48
2023/03/15 00:33:52;;;;;;;8.32;1.48;;;4.50;99.90;;;;;;5031200;28;20494;-45
2023/03/15 00:36:18;;;;;;;13.20;1.60;;;4.40;99.90;;;;;;5047510;28;20029;-44
2023/03/15 00:38:44;;;;;;;4.93;1.13;;;4.30;99.90;;;;;;5052501;28;20028;-50
2023/03/15 00:41:12;;;;;;;7.72;1.15;;;4.20;99.90;;;;;;5052841;28;20401;-56
2023/03/15 00:43:38;;;;;;;4.05;1.00;;;4.10;99.90;;;;;;5053071;28;20035;-44
2023/03/15 00:46:04;;;;;;;6.97;1.70;;;4.00;99.90;;;;;;5053473;28;20021;-42
2023/03/15 00:48:30;;;;;;;4.65;1.27;;;3.90;99.90;;;;;;5052744;28;20108;-46
2023/03/15 00:51:07;;;;;;;8.93;1.73;;;3.80;99.90;;;;;;5034899;28;20025;-50
2023/03/15 00:53:35;;;;;;;10.13;1.50;;;3.70;99.90;;;;;;5052673;28;20064;-51
2023/03/15 00:56:06;;;;;;;10.60;1.75;;;3.70;99.90;;;;;;5052922;28;20056;-42
2023/03/15 00:58:31;;;;;;;9.40;1.42;;;3.60;99.90;;;;;;5034763;28;20359;-49
2023/03/15 01:00:57;;;;;;;9.68;1.58;;;3.60;99.90;;;;;;5052871;28;20079;-51
2023/03/15 01:03:22;;;;;;;6.00;1.60;;;3.50;99.90;;;;;;5054534;28;20107;-42
2023/03/15 01:05:48;;;;;;;8.75;1.77;;;3.40;99.90;;;;;;5053745;28;20071;-43
2023/03/15 01:08:14;;;;;;;6.45;1.55;;;3.40;99.90;;;;;;5037069;28;20024;-42
2023/03/15 01:10:39;;;;;;;10.68;1.42;;;3.30;99.90;;;;;;5053973;28;20047;-41
2023/03/15 01:13:06;;;;;;;5.63;1.25;;;3.30;99.90;;;;;;5053760;28;20053;-41
2023/03/15 01:15:31;;;;;;;5.75;1.75;;;3.30;99.90;;;;;;5052631;28;20098;-47
2023/03/15 01:17:57;;;;;;;9.13;1.45;;;3.20;99.90;;;;;;5052660;28;20424;-41
2023/03/15 01:20:23;;;;;;;4.78;1.10;;;3.20;99.90;;;;;;5052530;28;20025;-42
2023/03/15 01:22:48;;;;;;;4.88;1.50;;;3.10;99.90;;;;;;5052604;28;20029;-47
2023/03/15 01:25:14;;;;;;;6.10;1.35;;;3.10;99.90;;;;;;5052733;28;20032;-41
2023/03/15 01:27:39;;;;;;;3.80;1.20;;;3.00;99.90;;;;;;5052633;28;20492;-41
2023/03/15 01:30:06;;;;;;;4.15;1.35;;;3.00;99.90;;;;;;5052482;28;20028;-42
2023/03/15 01:32:32;;;;;;;4.63;1.30;;;3.00;99.90;;;;;;5052515;28;20025;-42
2023/03/15 01:34:58;;;;;;;7.88;1.63;;;2.90;99.90;;;;;;5040216;28;20037;-46
2023/03/15 01:37:25;;;;;;;9.05;1.40;;;2.90;99.90;;;;;;5047369;28;20021;-41
2023/03/15 01:39:51;;;;;;;9.20;1.58;;;2.90;99.90;;;;;;5052264;28;20033;-42
2023/03/15 01:42:16;;;;;;;4.45;1.50;;;2.90;99.90;;;;;;5052094;28;20079;-44
2023/03/15 01:44:54;;;;;;;6.75;1.38;;;2.90;99.90;;;;;;5052136;28;20033;-41
2023/03/15 01:47:21;;;;;;;3.10;0.98;;;2.80;99.90;;;;;;5052199;28;20028;-43
2023/03/15 01:49:51;;;;;;;7.88;1.45;;;2.70;99.90;;;;;;5050923;28;20029;-44
2023/03/15 01:52:24;;;;;;;5.25;1.38;;;2.70;99.90;;;;;;5051801;28;20029;-42
2023/03/15 01:54:50;;;;;;;8.45;1.40;;;2.70;99.90;;;;;;5051770;28;20037;-41
2023/03/15 01:57:21;;;;;;;6.28;1.52;;;2.60;99.90;;;;;;5051650;28;20031;-45
2023/03/15 01:59:58;;;;;;;4.38;1.27;;;2.60;99.90;;;;;;5051822;28;20496;-43
2023/03/15 02:02:25;;;;;;;5.50;1.55;;;2.50;99.90;;;;;;5051270;28;20132;-43
2023/03/15 02:05:01;;;;;;;3.78;1.27;;;2.50;99.90;;;;;;5047643;28;20536;-47
2023/03/15 02:07:28;;;;;;;7.65;1.70;;;2.50;99.90;;;;;;5051684;28;20111;-54
2023/03/15 02:10:02;;;;;;;5.60;1.70;;;2.50;99.90;;;;;;5051762;28;20052;-44
2023/03/15 02:12:32;;;;;;;8.77;2.25;;;2.50;99.90;;;;;;5051531;28;20028;-43
2023/03/15 02:14:59;;;;;;;;;;;2.50;99.90;;;;;;5051722;28;20102;-44
2023/03/15 02:17:34;;;;;;;14.32;3.72;;;2.40;99.90;;;;;;5051659;28;19959;-45
2023/03/15 02:20:17;;;;;;;14.27;3.33;;;2.40;99.90;;;;;;5038531;28;20097;-51
2023/03/15 02:23:04;;;;;;;5.18;1.80;;;2.40;99.90;;;;;;5051205;28;20516;-42
2023/03/15 02:25:41;;;;;;;6.07;1.60;;;2.40;99.90;;;;;;5051440;28;20029;-41
2023/03/15 02:28:10;;;;;;;5.35;1.85;;;2.40;99.90;;;;;;5050917;28;20379;-44
2023/03/15 02:30:36;;;;;;;6.70;2.25;;;2.40;99.90;;;;;;5051264;28;20060;-49
2023/03/15 02:33:06;;;;;;;8.43;2.45;;;2.30;99.90;;;;;;5048017;28;20064;-41
2023/03/15 02:35:32;;;;;;;9.73;2.10;;;2.30;99.90;;;;;;5039405;28;20140;-42
2023/03/15 02:38:01;;;;;;;4.75;1.70;;;2.20;99.90;;;;;;5048272;28;20512;-44
2023/03/15 02:40:29;;;;;;;8.70;2.03;;;2.10;99.90;;;;;;5040961;28;20040;-46
2023/03/15 02:43:05;;;;;;;9.27;1.60;;;2.10;99.90;;;;;;5047767;28;20029;-44
2023/03/15 02:45:32;;;;;;;6.47;1.35;;;2.10;99.90;;;;;;5038044;28;20027;-46
2023/03/15 02:48:00;;;;;;;4.30;1.42;;;2.10;99.90;;;;;;5047256;28;20029;-47
2023/03/15 02:50:26;;;;;;;7.40;1.58;;;2.00;99.90;;;;;;5050525;28;20504;-43
2023/03/15 02:52:51;;;;;;;5.75;1.48;;;1.90;99.90;;;;;;5042373;28;20013;-44
2023/03/15 02:55:18;;;;;;;7.47;1.73;;;1.90;99.90;;;;;;5050803;28;20049;-45
2023/03/15 02:57:44;;;;;;;5.70;1.52;;;1.80;99.90;;;;;;5041236;28;20025;-43
2023/03/15 03:00:13;;;;;;;4.03;1.08;;;1.90;99.90;;;;;;5050800;28;20037;-46
2023/03/15 03:02:44;;;;;;;6.55;1.52;;;1.90;99.90;;;;;;5039904;28;20021;-48
2023/03/15 03:05:12;;;;;;;4.35;1.60;;;1.90;99.90;;;;;;5049116;28;20030;-48
2023/03/15 03:07:38;;;;;;;3.47;1.27;;;1.80;99.90;;;;;;5038481;28;20154;-47
2023/03/15 03:10:06;;;;;;;5.85;1.35;;;1.80;99.90;;;;;;5050661;28;20461;-47
2023/03/15 03:12:32;;;;;;;6.40;1.50;;;1.80;99.90;;;;;;5020773;28;20034;-42
2023/03/15 03:14:58;;;;;;;3.97;1.40;;;1.80;99.90;;;;;;5050313;28;20052;-44
2023/03/15 03:17:23;;;;;;;7.22;1.52;;;1.80;99.90;;;;;;5038227;28;20033;-42
2023/03/15 03:19:50;;;;;;;4.88;1.40;;;1.80;99.90;;;;;;5050320;28;20040;-42
2023/03/15 03:22:16;;;;;;;5.13;1.50;;;1.80;99.90;;;;;;5039293;28;20025;-44
2023/03/15 03:24:44;;;;;;;6.38;1.63;;;1.70;99.90;;;;;;5048296;28;20021;-50
2023/03/15 03:27:14;;;;;;;6.03;1.58;;;1.60;99.90;;;;;;5044373;28;20516;-42
2023/03/15 03:29:40;;;;;;;7.03;1.30;;;1.50;99.90;;;;;;5046798;28;20651;-43
2023/03/15 03:32:06;;;;;;;5.80;1.40;;;1.30;99.90;;;;;;5048918;28;20444;-46
2023/03/15 03:34:32;;;;;;;7.63;1.35;;;1.20;99.90;;;;;;5049888;28;20037;-44
2023/03/15 03:36:58;;;;;;;5.15;1.50;;;1.20;99.90;;;;;;5048086;28;20029;-48
2023/03/15 03:39:24;;;;;;;2.42;1.10;;;1.20;99.90;;;;;;5016104;28;20032;-41
2023/03/15 03:41:50;;;;;;;1.92;1.05;;;1.20;99.90;;;;;;5050442;28;20025;-41
2023/03/15 03:44:15;;;;;;;5.70;1.67;;;1.10;99.90;;;;;;5050503;28;20096;-41
2023/03/15 03:46:41;;;;;;;2.88;1.05;;;1.20;99.90;;;;;;5050280;28;20029;-42
2023/03/15 03:49:07;;;;;;;4.18;1.40;;;1.20;99.90;;;;;;5050002;28;20036;-44
2023/03/15 03:51:36;;;;;;;8.75;1.98;;;1.20;99.90;;;;;;5050141;28;20542;-41
2023/03/15 03:54:03;;;;;;;6.00;1.73;;;1.30;99.90;;;;;;5049724;28;20037;-49
2023/03/15 03:56:29;;;;;;;3.88;1.45;;;1.30;99.90;;;;;;5050210;28;20025;-55
2023/03/15 03:58:55;;;;;;;5.95;1.60;;;1.30;99.90;;;;;;5049852;28;20064;-51
2023/03/15 04:01:21;;;;;;;3.88;1.40;;;1.30;99.90;;;;;;5050193;28;20106;-51
2023/03/15 04:03:47;;;;;;;2.65;1.20;;;1.20;99.90;;;;;;5049819;28;20025;-45
2023/03/15 04:06:13;;;;;;;8.65;1.55;;;1.10;99.90;;;;;;5030517;28;20036;-44
2023/03/15 04:08:40;;;;;;;4.78;1.30;;;1.10;99.90;;;;;;5041888;28;20029;-47
2023/03/15 04:11:06;;;;;;;5.28;1.40;;;1.00;99.90;;;;;;5049727;28;20032;-42
2023/03/15 04:13:32;;;;;;;4.20;1.17;;;0.90;99.90;;;;;;5051842;28;20137;-46
2023/03/15 04:16:00;;;;;;;3.67;1.40;;;0.90;99.90;;;;;;5053404;28;20511;-45
2023/03/15 04:18:26;;;;;;;7.82;1.55;;;0.90;99.90;;;;;;5053818;28;20341;-45
2023/03/15 04:20:53;;;;;;;4.45;1.50;;;0.90;99.90;;;;;;5053778;28;20071;-46
2023/03/15 04:23:21;;;;;;;4.18;1.50;;;0.70;99.90;;;;;;5053849;28;20029;-48
2023/03/15 04:25:51;;;;;;;7.45;1.83;;;0.60;99.90;;;;;;5053509;28;20025;-42
2023/03/15 04:28:17;;;;;;;2.83;1.10;;;0.60;99.90;;;;;;5053287;28;20099;-46
2023/03/15 04:30:44;;;;;;;4.90;1.60;;;0.60;99.90;;;;;;5053793;28;20029;-51
2023/03/15 04:33:10;;;;;;;3.92;1.48;;;0.60;99.90;;;;;;5053544;28;20079;-44
2023/03/15 04:35:37;;;;;;;4.68;1.52;;;0.60;99.90;;;;;;5053332;28;20513;-47
2023/03/15 04:38:05;;;;;;;5.45;1.90;;;0.50;99.90;;;;;;5051112;28;20071;-43
2023/03/15 04:40:33;;;;;;;3.42;1.65;;;0.50;99.90;;;;;;5044205;28;20025;-45
2023/03/15 04:43:00;;;;;;;4.53;1.57;;;0.50;99.90;;;;;;5052962;28;20021;-44
2023/03/15 04:45:27;;;;;;;4.43;1.60;;;0.50;99.90;;;;;;5053220;28;20021;-44
2023/03/15 04:47:54;;;;;;;2.88;1.27;;;0.60;99.90;;;;;;5053246;28;20033;-42
2023/03/15 04:50:20;;;;;;;6.35;1.88;;;0.60;99.90;;;;;;5052902;28;20009;-42
2023/03/15 04:52:46;;;;;;;2.78;1.58;;;0.60;99.90;;;;;;5053120;28;20063;-48
2023/03/15 04:55:12;;;;;;;4.63;1.85;;;0.60;99.90;;;;;;5052684;28;20505;-50
2023/03/15 04:57:38;;;;;;;5.90;1.50;;;0.60;99.90;;;;;;5052959;28;20013;-46
2023/03/15 05:00:08;;;;;;;4.65;2.00;;;0.50;99.90;;;;;;5052842;28;20064;-47
2023/03/15 05:02:34;;;;;;;6.07;2.00;;;0.50;99.90;;;;;;5049587;28;20023;-42
2023/03/15 05:05:00;;;;;;;6.65;1.63;;;0.40;99.90;;;;;;5052899;28;20365;-48
2023/03/15 05:07:26;;;;;;;7.38;1.85;;;0.30;99.90;;;;;;5052788;28;20017;-45
2023/03/15 05:09:51;;;;;;;3.80;1.35;;;0.30;99.90;;;;;;5052790;28;20119;-50
2023/03/15 05:12:17;;;;;;;6.25;1.33;;;0.30;99.90;;;;;;5052673;28;20500;-43
2023/03/15 05:14:43;;;;;;;4.28;1.50;;;0.30;99.90;;;;;;5034636;28;20494;-42
2023/03/15 05:17:09;;;;;;;4.80;1.40;;;0.30;99.90;;;;;;5034762;28;20051;-44
2023/03/15 05:19:35;;;;;;;9.82;1.98;;;0.40;99.90;;;;;;5052510;28;20049;-42
2023/03/15 05:22:02;;;;;;;3.78;1.40;;;0.30;99.90;;;;;;5052609;28;20044;-53
2023/03/15 05:24:28;;;;;;;6.03;1.83;;;0.30;99.90;;;;;;5052266;28;20328;-42
2023/03/15 05:26:54;;;;;;;7.53;2.38;;;0.20;99.90;;;;;;5052633;28;20470;-44
2023/03/15 05:29:21;;;;;;;3.55;1.70;;;0.10;99.90;;;;;;5052339;28;20031;-48
2023/03/15 05:31:47;;;;;;;4.50;1.48;;;0.10;99.90;;;;;;5052089;28;20437;-53
2023/03/15 05:34:13;;;;;;;5.93;1.88;;;0.00;99.90;;;;;;5038413;28;20029;-48
2023/03/15 05:36:40;;;;;;;5.00;1.88;;;-0.10;99.90;;;;;;5052411;28;20024;-43
2023/03/15 05:39:06;;;;;;;6.40;1.60;;;-0.10;99.90;;;;;;5052361;28;20049;-44
2023/03/15 05:41:32;;;;;;;4.72;1.80;;;-0.10;99.90;;;;;;5051843;28;20052;-44
2023/03/15 05:43:58;;;;;;;4.15;1.65;;;-0.10;99.90;;;;;;5051901;28;20527;-50
2023/03/15 05:46:24;;;;;;;5.50;1.77;;;-0.20;99.90;;;;;;5051689;28;20029;-49
2023/03/15 05:48:50;;;;;;;5.78;1.90;;;-0.30;99.90;;;;;;5034367;28;20167;-42
2023/03/15 05:51:15;;;;;;;4.82;1.98;;;-0.30;99.90;;;;;;5052160;28;20096;-44
2023/03/15 05:53:41;;;;;;;5.00;1.90;;;-0.30;99.90;;;;;;5051794;28;20190;-46
2023/03/15 05:56:08;;;;;;;7.03;2.00;;;-0.20;99.90;;;;;;5052153;28;20040;-44
2023/03/15 05:58:33;;;;;;;5.20;1.80;;;-0.10;99.90;;;;;;5051835;28;20485;-44
2023/03/15 06:01:00;;;;;;;5.50;2.35;;;-0.10;99.90;;;;;;5051787;28;20092;-51
2023/03/15 06:03:26;;;;;;;7.22;2.00;;;0.00;99.90;;;;;;5050927;28;20501;-51
2023/03/15 06:05:52;;;;;;;4.80;2.20;;;0.00;99.90;;;;;;5051570;28;20033;-41
2023/03/15 06:08:18;;;;;;;4.97;2.13;;;-0.10;99.90;;;;;;5051426;28;20394;-45
2023/03/15 06:10:44;;;;;;;7.47;2.28;;;0.00;99.90;;;;;;5051483;28;20099;-50
2023/03/15 06:13:10;;;;;;;7.93;2.35;;;0.00;99.90;;;;;;5051506;28;20029;-47
2023/03/15 06:15:35;;;;;;;6.63;2.40;;;0.00;99.90;;;;;;5051074;28;20111;-43
2023/03/15 06:18:01;;;;;;;5.38;2.08;;;0.00;99.90;;;;;;5051314;28;20021;-49
2023/03/15 06:20:26;;;;;;;5.95;2.50;;;0.00;99.90;;;;;;5051212;28;20071;-42
2023/03/15 06:22:52;;;;;;;4.90;2.53;;;0.00;99.90;;;;;;5051244;28;20076;-43
2023/03/15 06:25:18;;;;;;;9.07;2.65;;;0.00;99.90;;;;;;5051317;28;20032;-42
2023/03/15 06:27:43;;;;;;;7.13;2.28;;;0.10;99.90;;;;;;5033885;28;20704;-46
2023/03/15 06:30:09;;;;;;;9.73;3.25;;;0.20;99.90;;;;;;5051301;28;20087;-52
2023/03/15 06:32:35;;;;;;;6.07;2.85;;;0.20;99.90;;;;;;5043392;28;20017;-49
2023/03/15 06:35:00;;;;;;;6.38;2.33;;;0.30;99.90;;;;;;5050748;28;20067;-48
2023/03/15 06:37:26;;;;;;;5.88;2.75;;;0.40;99.90;;;;;;5049762;28;20029;-50
2023/03/15 06:39:53;;;;;;;8.02;3.00;;;0.50;99.90;;;;;;5051082;28;20032;-58
2023/03/15 06:42:19;;;;;;;9.02;3.60;;;0.60;99.90;;;;;;5051210;28;20160;-42
2023/03/15 06:44:45;;;;;;;9.40;3.28;;;0.70;99.90;;;;;;5051226;28;20098;-51
2023/03/15 06:47:12;;;;;;;7.63;3.15;;;0.80;99.90;;;;;;5050970;28;20021;-53
2023/03/15 06:49:38;;;;;;;21.40;3.80;;;0.90;99.90;;;;;;5050643;28;20021;-45
2023/03/15 06:52:04;;;;;;;10.05;2.70;;;0.90;99.90;;;;;;5050890;28;20031;-46
2023/03/15 06:54:30;;;;;;;9.82;2.65;;;0.80;99.90;;;;;;5050929;28;20119;-44
2023/03/15 06:56:56;;;;;;;6.70;2.80;;;0.90;99.90;;;;;;5051052;28;20454;-45
2023/03/15 06:59:22;;;;;;;10.20;2.35;;;1.10;99.90;;;;;;5050846;28;20041;-51
2023/03/15 07:01:48;;;;;;;8.95;2.47;;;1.20;99.90;;;;;;5048513;28;20039;-45
2023/03/15 07:04:14;;;;;;;8.10;2.35;;;1.30;99.90;;;;;;5051301;28;20412;-45
2023/03/15 07:06:39;;;;;;;5.10;2.05;;;1.50;99.90;;;;;;5050773;28;20489;-43
2023/03/15 07:09:05;;;;;;;8.95;2.38;;;1.60;99.90;;;;;;5050880;28;20029;-42
2023/03/15 07:11:31;;;;;;;10.23;2.92;;;1.70;99.90;;;;;;5050723;28;20033;-50
2023/03/15 07:13:57;;;;;;;9.75;3.00;;;1.90;99.90;;;;;;5050056;28;20017;-43
2023/03/15 07:16:24;;;;;;;5.38;2.75;;;1.90;99.90;;;;;;5050078;28;20094;-45
2023/03/15 07:18:49;;;;;;;9.30;3.35;;;2.00;99.90;;;;;;5050236;28;20032;-41
2023/03/15 07:21:15;;;;;;;7.38;2.70;;;2.20;99.90;;;;;;5050677;28;20029;-42
2023/03/15 07:23:41;;;;;;;6.78;2.60;;;2.30;99.90;;;;;;5050396;28;20031;-46
2023/03/15 07:26:07;;;;;;;8.27;3.05;;;2.50;99.90;;;;;;5049696;28;20378;-43
2023/03/15 07:28:33;;;;;;;6.40;3.35;;;2.70;99.90;;;;;;5050305;28;20462;-43
2023/03/15 07:31:01;;;;;;;7.55;3.10;;;2.80;99.90;;;;;;5032283;28;20017;-43
2023/03/15 07:33:28;;;;;;;6.70;2.63;;;3.00;99.90;;;;;;5042899;28;20039;-46
2023/03/15 07:35:54;;;;;;;7.85;2.95;;;3.10;99.90;;;;;;5050298;28;20436;-43
2023/03/15 07:38:27;;;;;;;6.25;3.15;;;3.00;99.90;;;;;;5050451;28;20087;-47
2023/03/15 07:40:53;;;;;;;7.25;2.63;;;3.00;99.90;;;;;;5032337;28;20029;-43
2023/03/15 07:43:20;;;;;;;7.57;2.70;;;2.90;99.90;;;;;;5050426;28;20025;-46
2023/03/15 07:45:45;;;;;;;9.50;2.90;;;2.90;99.90;;;;;;5050404;28;20036;-43
2023/03/15 07:48:11;;;;;;;7.63;4.38;;;3.20;99.90;;;;;;5051810;28;20393;-45
2023/03/15 07:50:37;;;;;;;9.07;3.13;;;3.60;99.90;;;;;;5054348;28;20385;-43
2023/03/15 07:53:04;;;;;;;8.98;2.95;;;3.90;99.90;;;;;;5054252;28;20032;-47
2023/03/15 07:55:31;;;;;;;8.48;3.13;;;4.30;99.90;;;;;;5054203;28;20079;-43
2023/03/15 07:57:56;;;;;;;5.90;3.00;;;4.70;99.90;;;;;;5054235;28;20021;-43
2023/03/15 08:00:22;;;;;;;6.40;2.50;;;5.10;99.90;;;;;;5054114;28;20108;-43
2023/03/15 08:02:48;;;;;;;6.13;2.45;;;5.40;99.90;;;;;;5052506;28;20028;-52
2023/03/15 08:05:17;;;;;;;6.43;2.45;;;5.70;99.90;;;;;;5054325;28;20040;-46
2023/03/15 08:07:44;;;;;;;6.73;2.37;;;6.20;99.90;;;;;;5052182;28;20025;-41
2023/03/15 08:10:10;;;;;;;6.15;2.25;;;7.10;99.90;;;;;;5053921;28;20035;-43
2023/03/15 08:12:35;;;;;;;5.47;2.20;;;7.70;99.90;;;;;;5053790;28;20021;-43
2023/03/15 08:15:01;;;;;;;7.45;2.15;;;8.30;99.90;;;;;;5053536;28;20219;-44
2023/03/15 08:17:27;;;;;;;6.85;2.25;;;8.80;99.90;;;;;;5053770;28;20056;-46
2023/03/15 08:19:52;;;;;;;4.35;1.85;;;9.00;99.90;;;;;;5035617;28;20029;-50
2023/03/15 08:22:18;;;;;;;4.90;1.88;;;9.50;99.90;;;;;;5053687;28;20495;-52
2023/03/15 08:24:44;;;;;;;6.22;2.28;;;10.50;99.90;;;;;;5053722;28;20024;-47
2023/03/15 08:27:10;;;;;;;4.65;2.03;;;12.00;99.90;;;;;;5053517;28;20146;-55
2023/03/15 08:29:36;;;;;;;4.80;2.00;;;13.10;94.50;;;;;;5035414;28;20029;-47
2023/03/15 08:32:02;;;;;;;4.65;2.28;;;13.50;91.00;;;;;;5048154;28;20067;-45
2023/03/15 08:34:27;;;;;;;4.38;2.10;;;14.10;87.10;;;;;;5051769;28;20066;-53
2023/03/15 08:36:53;;;;;;;4.22;1.92;;;14.60;85.00;;;;;;5037126;28;20033;-42
2023/03/15 08:39:18;;;;;;;4.78;2.17;;;15.10;83.60;;;;;;5045739;28;20033;-48
2023/03/15 08:41:46;;;;;;;3.83;2.00;;;15.40;82.60;;;;;;5038864;28;20060;-53
2023/03/15 08:44:11;;;;;;;6.63;2.47;;;16.00;77.00;;;;;;5015752;28;20030;-48
2023/03/15 08:46:37;;;;;;;5.18;2.03;;;16.30;78.40;;;;;;5050709;28;20028;-47
2023/03/15 08:49:03;;;;;;;5.40;2.10;;;15.70;72.90;;;;;;5053365;28;20043;-49
2023/03/15 08:51:29;;;;;;;5.10;2.03;;;15.90;71.20;;;;;;5052796;28;20124;-45
2023/03/15 08:53:55;;;;;;;6.80;2.42;;;16.40;71.50;;;;;;5052524;28;20094;-50
2023/03/15 08:56:21;;;;;;;5.53;2.05;;;15.80;71.20;;;;;;5052966;28;20021;-46
2023/03/15 08:58:47;;;;;;;6.43;2.30;;;15.80;71.40;;;;;;5052265;28;20036;-50
2023/03/15 09:01:13;;;;;;;3.38;1.52;;;16.20;72.80;;;;;;5025099;28;20040;-51
2023/03/15 09:03:41;;;;;;;4.80;1.77;;;17.10;72.70;;;;;;5036660;28;20064;-51
2023/03/15 09:06:07;;;;;;;5.05;1.70;;;17.90;68.10;;;;;;5052073;28;20029;-49
2023/03/15 09:08:33;;;;;;;5.93;2.00;;;17.80;67.20;;;;;;5052774;28;20029;-48
2023/03/15 09:11:00;;;;;;;2.85;1.40;;;17.90;65.50;;;;;;5052710;28;20044;-48
2023/03/15 09:13:26;;;;;;;6.22;1.60;;;17.50;63.70;;;;;;5052614;28;20033;-52
2023/03/15 09:15:53;;;;;;;4.20;1.60;;;16.80;64.10;;;;;;5052631;28;20053;-50
2023/03/15 09:18:19;;;;;;;3.95;1.60;;;17.90;62.20;;;;;;5052771;28;20024;-47
2023/03/15 09:20:46;;;;;;;3.00;1.27;;;18.70;64.40;;;;;;5052648;28;20021;-49
2023/03/15 09:23:12;;;;;;;3.78;1.17;;;19.60;58.50;;;;;;5034601;28;20035;-50
2023/03/15 09:25:38;;;;;;;4.65;1.33;;;19.00;56.90;;;;;;5052204;28;20017;-50
2023/03/15 09:28:09;;;;;;;2.50;1.13;;;18.70;59.20;;;;;;5051903;28;20032;-46
2023/03/15 09:30:36;;;;;;;3.28;1.42;;;18.10;61.50;;;;;;5042089;28;20466;-45
2023/03/15 09:33:02;;;;;;;4.50;1.00;;;18.90;58.20;;;;;;5036164;28;20108;-53
2023/03/15 09:35:28;;;;;;;4.57;1.10;;;18.90;59.00;;;;;;5041200;28;20135;-48
2023/03/15 09:37:53;;;;;;;3.72;1.02;;;19.10;57.70;;;;;;5037825;28;20452;-47
2023/03/15 09:40:28;;;;;;;3.28;1.17;;;18.80;57.00;;;;;;5038985;28;20554;-48
2023/03/15 09:43:06;;;;;;;2.75;1.15;;;18.20;58.20;;;;;;5044866;28;20485;-50
2023/03/15 09:46:10;;;;;;;5.97;2.05;;;17.70;59.00;;;;;;5039750;28;20037;-53
2023/03/15 09:48:48;;;;;;;6.22;1.80;;;16.00;60.70;;;;;;5037257;28;20024;-51
2023/03/15 09:51:49;;;;;;;3.40;1.25;;;16.10;64.90;;;;;;5051874;28;20043;-46
2023/03/15 09:54:22;;;;;;;4.38;1.42;;;15.90;63.30;;;;;;5009227;28;20040;-47
2023/03/15 09:56:57;;;;;;;4.25;1.50;;;15.70;63.40;;;;;;5051132;28;20359;-48
2023/03/15 09:59:31;;;;;;;4.95;1.60;;;15.00;64.00;;;;;;5050955;28;20040;-44
2023/03/15 10:01:59;;;;;;;5.55;1.30;;;14.80;65.70;;;;;;5050593;28;20397;-43
2023/03/15 10:04:39;;;;;;;3.97;1.05;;;14.10;66.40;;;;;;5039635;28;20040;-50
2023/03/15 10:07:06;;;;;;;;;;;13.20;66.30;;;;;;5046813;28;20020;-47
2023/03/15 10:09:32;;;;;;;4.47;1.40;;;12.70;69.00;;;;;;5041497;28;19905;-51
2023/03/15 10:12:03;;;;;;;3.10;1.30;;;12.40;69.50;;;;;;5035680;28;20029;-46
2023/03/15 10:14:50;;;;;;;4.60;1.63;;;12.20;71.40;;;;;;5039721;28;20059;-50
2023/03/15 10:17:34;;;;;;;4.53;1.30;;;12.00;72.80;;;;;;5051397;28;20021;-54
2023/03/15 10:20:12;;;;;;;5.10;1.38;;;12.90;73.10;;;;;;5049633;28;20410;-50
2023/03/15 10:23:07;;;;;;;5.65;1.80;;;13.10;71.10;;;;;;5039523;28;20473;-46
2023/03/15 10:25:34;;;;;;;5.35;1.70;;;12.60;72.80;;;;;;5044824;28;20182;-47
2023/03/15 10:28:22;;;;;;;3.53;1.73;;;12.40;72.80;;;;;;5037564;28;20045;-47
2023/03/15 10:30:50;;;;;;;4.93;2.00;;;12.40;74.60;;;;;;5037874;28;20026;-56
2023/03/15 10:33:31;;;;;;;3.95;1.67;;;12.20;75.40;;;;;;5036335;28;20022;-49
2023/03/15 10:35:57;;;;;;;4.93;1.63;;;12.70;75.90;;;;;;5041556;28;20049;-52
2023/03/15 10:38:25;;;;;;;6.28;1.90;;;13.20;71.50;;;;;;5038242;28;20028;-44
2023/03/15 10:40:58;;;;;;;6.20;1.40;;;12.80;72.40;;;;;;5041065;28;20033;-41
2023/03/15 10:43:28;;;;;;;5.40;1.60;;;12.60;73.70;;;;;;5048793;28;20028;-47
2023/03/15 10:46:03;;;;;;;6.15;1.63;;;12.40;73.80;;;;;;5022201;28;20079;-43
2023/03/15 10:48:50;;;;;;;4.95;1.45;;;12.50;74.40;;;;;;5049716;28;20021;-45
2023/03/15 10:51:23;;;;;;;4.72;1.50;;;12.30;74.00;;;;;;5050940;28;20029;-42
2023/03/15 10:54:01;;;;;;;3.85;1.58;;;12.20;75.10;;;;;;5050873;28;20136;-42
2023/03/15 10:56:30;;;;;;;5.47;1.55;;;12.00;76.50;;;;;;5031631;28;20076;-46
2023/03/15 10:58:57;;;;;;;2.50;1.13;;;12.20;76.00;;;;;;5043125;28;20029;-49
2023/03/15 11:01:34;;;;;;;5.60;1.45;;;12.30;75.40;;;;;;5049595;28;20033;-47
2023/03/15 11:04:14;;;;;;;4.53;1.23;;;12.10;74.30;;;;;;5046034;28;20028;-43
2023/03/15 11:07:02;;;;;;;2.72;1.15;;;11.50;75.60;;;;;;5050227;28;20129;-42
2023/03/15 11:09:39;;;;;;;3.97;1.30;;;11.50;78.50;;;;;;5050657;28;20017;-46
2023/03/15 11:12:14;;;;;;;1.92;1.02;;;11.60;78.00;;;;;;5043136;28;20045;-49
2023/03/15 11:14:43;;;;;;;4.32;1.27;;;11.10;76.40;;;;;;5050441;28;20140;-45
2023/03/15 11:17:17;;;;;;;5.25;1.20;;;10.90;79.10;;;;;;5049921;28;20050;-46
2023/03/15 11:19:58;;;;;;;3.17;0.93;;;10.80;79.10;;;;;;5050522;28;20095;-46
2023/03/15 11:22:25;;;;;;;5.03;1.10;;;10.60;81.20;;;;;;5050225;28;20017;-47
2023/03/15 11:24:53;;;;;;;3.38;1.20;;;10.30;82.80;;;;;;5032325;28;20041;-52
2023/03/15 11:27:21;;;;;;;4.38;1.02;;;10.40;82.30;;;;;;5050064;28;20483;-45
2023/03/15 11:29:59;;;;;;;2.78;1.00;;;10.40;81.60;;;;;;5032375;28;20033;-44
2023/03/15 11:32:28;;;;;;;4.22;1.98;;;10.60;81.30;;;;;;5050459;28;20047;-49
2023/03/15 11:35:32;;;;;;;2.20;0.80;;;10.70;81.90;;;;;;5050446;28;20132;-42
2023/03/15 11:38:04;;;;;;;2.25;0.80;;;10.80;82.80;;;;;;5049480;28;20032;-45
2023/03/15 11:40:35;;;;;;;3.13;0.90;;;11.20;81.10;;;;;;5047112;28;20025;-48
2023/03/15 11:43:24;;;;;;;0.90;0.60;;;11.30;80.20;;;;;;5043642;28;20046;-48
2023/03/15 11:45:57;;;;;;;2.42;0.82;;;11.50;78.10;;;;;;5044200;28;20079;-44
2023/03/15 11:48:39;;;;;;;3.22;0.80;;;12.00;77.40;;;;;;5049433;28;20031;-44
2023/03/15 11:51:06;;;;;;;3.55;0.93;;;12.40;76.70;;;;;;5032177;28;20029;-47
2023/03/15 11:53:44;;;;;;;4.20;1.10;;;12.50;73.60;;;;;;5049451;28;20017;-49
2023/03/15 11:56:25;;;;;;;5.13;1.10;;;12.90;73.80;;;;;;5032104;28;20028;-48
2023/03/15 11:59:07;;;;;;;2.47;0.98;;;13.50;73.20;;;;;;5044061;28;20266;-47
2023/03/15 12:01:33;;;;;;;3.92;0.73;;;13.10;71.40;;;;;;5037042;28;20025;-46
2023/03/15 12:04:24;;;;;;;7.85;1.30;;;12.70;72.50;;;;;;5032980;28;20029;-48
2023/03/15 12:06:55;;;;;;;2.42;0.70;;;12.70;74.50;;;;;;5014616;28;20028;-50
2023/03/15 12:09:54;;;;;;;5.07;0.80;;;12.50;72.40;;;;;;5032424;28;20033;-49
2023/03/15 12:12:23;;;;;;;3.03;0.88;;;11.60;75.50;;;;;;4999383;28;20071;-45
2023/03/15 12:15:17;;;;;;;3.90;1.23;;;11.70;77.60;;;;;;5044285;28;20067;-52
2023/03/15 12:17:58;;;;;;;2.35;0.70;;;12.70;77.50;;;;;;5040148;28;20555;-46
2023/03/15 12:20:34;;;;;;;1.10;0.70;;;13.40;74.20;;;;;;5044295;28;20021;-48
2023/03/15 12:23:17;;;;;;;1.70;0.70;;;13.80;71.90;;;;;;5041302;28;20029;-47
2023/03/15 12:25:49;;;;;;;2.38;0.77;;;13.40;71.30;;;;;;5032773;28;20105;-50
2023/03/15 12:28:48;;;;;;;2.22;0.68;;;12.90;72.10;;;;;;5043113;28;20104;-48
2023/03/15 12:31:14;;;;;;;2.13;0.70;;;12.10;76.00;;;;;;5034624;28;20112;-46
2023/03/15 12:33:57;;;;;;;3.33;0.77;;;11.40;77.80;;;;;;5010744;28;20041;-49
2023/03/15 12:36:39;;;;;;;2.03;0.60;;;11.10;79.40;;;;;;5038879;28;20025;-49
2023/03/15 12:39:13;;;;;;;2.40;0.77;;;11.60;78.50;;;;;;5035895;28;20108;-48
2023/03/15 12:41:45;;;;;;;2.15;0.60;;;12.00;74.80;;;;;;5027861;28;20017;-48
2023/03/15 12:44:30;;;;;;;2.63;0.65;;;12.00;74.50;;;;;;5034617;28;20029;-47
2023/03/15 12:46:59;;;;;;;1.10;0.50;;;12.00;75.10;;;;;;5040541;28;20033;-53
2023/03/15 12:49:44;;;;;;;3.15;0.88;;;11.60;77.30;;;;;;5051978;28;20025;-54
2023/03/15 12:52:10;;;;;;;2.60;1.05;;;11.40;77.70;;;;;;5051674;28;20025;-53
2023/03/15 12:54:47;;;;;;;4.50;0.80;;;11.10;79.60;;;;;;5051645;28;20036;-45
2023/03/15 12:57:19;;;;;;;2.92;0.70;;;11.10;80.60;;;;;;5051858;28;20021;-47
2023/03/15 13:00:06;;;;;;;3.33;1.00;;;11.20;80.20;;;;;;5053203;28;20036;-44
2023/03/15 13:02:47;;;;;;;4.07;0.70;;;11.10;80.20;;;;;;5052562;28;20135;-49
2023/03/15 13:05:15;;;;;;;1.48;0.95;;;11.00;79.20;;;;;;5049872;28;20024;-50